Columbia, MO (65218)

12:02 AM CST on February 11, 2016 (GMT -0600)
Sunset hills | | Change Station
CLOSE
Current Station
Personal Weather Station
Location: Columbia, MO
Elevation: 689 ft
Nearby Weather Stations

Elev 689 ft 38.95 °N, 92.36 °W | Updated 1 second ago

Overcast
Overcast
25.9 °F
Feels Like 26 °F
N
0.0
Wind Variable Wind from ESE
Gusts 0.0 mph

Today
High -- | Low -- °F
--% Chance of Precip.
Yesterday
High -- | Low -- °F
Precip. -- in
Pressure 30.13 in
Visibility 10.0 miles
Clouds Overcast 5000 ft
Windchill 26 °F
Dew Point 17 °F
Humidity 70%
Rainfall 0.00 in
Snow Depth Not available.
7:06 AM 5:41 PM
Waxing Crescent, 9% visible
METAR KCOU 110554Z AUTO 07008KT 10SM OVC050 M04/M07 A3010 RMK AO2 SLP203 T10441072 11039 21056 410281100 53008 TSNO
Pressure 30.13 in
Visibility 10.0 miles
Clouds Overcast 5000 ft
Windchill 26 °F
Dew Point 17 °F
Humidity 70%
Rainfall 0.00 in
Snow Depth Not available.
7:06 AM 5:41 PM
Waxing Crescent, 9% visible
METAR KCOU 110554Z AUTO 07008KT 10SM OVC050 M04/M07 A3010 RMK AO2 SLP203 T10441072 11039 21056 410281100 53008 TSNO

10-Day Weather Forecast

Almanac

Astronomy

Feb. 11, 2016 Rise Set
Actual Time
Civil Twilight
Nautical Twilight
Astronomical Twilight
Moon
Length of Visible Light
Length of Day
Tomorrow will be .
, % of the Moon is Illuminated

Today's Extremes

State Highs State Lows

Community

WunderPhotos

Upload Photos

1,892,028 photos uploaded!

WunderBlog® & News

Nearby

Air Quality

  Air Quality AQ Index Pollutant
Not available.

Snow Depth

Station Depth Elevation

Earthquake Activity

City Distance Mag. Time & Date
Minimum magnitude displayed is 2.5.

Coastal Water Temperatures

Place Temperature

Stations

Nearby Weather Stations

Station Location Temp. Windchill Dew Point Humidity Wind Precip. Elev Updated Type
                   

Watches & Warnings

There are currently no watches in effect.